createdAt,value
2015-10-29T00:00:42.814Z,6
2015-10-29T00:01:42.753Z,5.9
2015-10-29T00:02:42.709Z,6
2015-10-29T00:03:42.649Z,6
2015-10-29T00:04:42.606Z,6
2015-10-29T00:05:42.545Z,5.9
2015-10-29T00:06:42.485Z,5.9
2015-10-29T00:07:42.442Z,6
2015-10-29T00:08:42.381Z,6
2015-10-29T00:09:42.321Z,6
2015-10-29T00:10:42.262Z,6
2015-10-29T00:11:42.218Z,6
2015-10-29T00:12:42.158Z,6
2015-10-29T00:13:42.114Z,6
2015-10-29T00:14:42.054Z,6.1
2015-10-29T00:15:41.994Z,6.1
2015-10-29T00:16:41.950Z,6.2
2015-10-29T00:17:41.890Z,6.3
2015-10-29T00:18:41.846Z,6.3
2015-10-29T00:19:41.786Z,6.3
2015-10-29T00:20:41.727Z,6.3
2015-10-29T00:21:41.682Z,6.2
2015-10-29T00:22:41.623Z,6.2
2015-10-29T00:23:41.563Z,6.2
2015-10-29T00:24:41.518Z,6.2
2015-10-29T00:25:41.459Z,6.2
2015-10-29T00:26:41.396Z,6.2
2015-10-29T00:27:41.351Z,6.1
2015-10-29T00:28:41.292Z,6.1
2015-10-29T00:29:41.248Z,6.1
2015-10-29T00:30:41.250Z,6.2
2015-10-29T00:31:41.128Z,6.2
2015-10-29T00:32:41.068Z,6.2
2015-10-29T00:33:41.025Z,6.2
2015-10-29T00:34:40.964Z,6.2
2015-10-29T00:35:40.936Z,6.2
2015-10-29T00:36:40.860Z,6.2
2015-10-29T00:37:40.801Z,6.2
2015-10-29T00:38:40.756Z,6.2
2015-10-29T00:39:40.697Z,6.2
2015-10-29T00:40:40.637Z,6.1
2015-10-29T00:41:40.593Z,6
2015-10-29T00:42:40.533Z,6
2015-10-29T00:43:40.473Z,6.1
2015-10-29T00:44:40.430Z,6.1
2015-10-29T00:45:40.369Z,6.2
2015-10-29T00:46:40.310Z,6.2
2015-10-29T00:47:40.249Z,6.2
2015-10-29T00:48:40.205Z,6.2
2015-10-29T00:49:40.146Z,6.1
2015-10-29T00:50:40.086Z,6
2015-10-29T00:51:40.041Z,6
2015-10-29T00:52:39.982Z,6
2015-10-29T00:53:39.922Z,6
2015-10-29T00:54:39.877Z,5.9
2015-10-29T00:55:39.818Z,5.9
2015-10-29T00:56:39.758Z,6
2015-10-29T00:57:39.714Z,6
2015-10-29T00:58:39.654Z,6.1
2015-10-29T00:59:39.595Z,6.1
2015-10-29T01:00:39.551Z,6.1
2015-10-29T01:01:39.490Z,6.1
2015-10-29T01:02:39.431Z,6.1
2015-10-29T01:03:39.387Z,6.1
2015-10-29T01:04:39.326Z,6.1
2015-10-29T01:05:39.282Z,6.1
2015-10-29T01:06:39.222Z,6
2015-10-29T01:07:39.162Z,5.9
2015-10-29T01:08:39.134Z,6
2015-10-29T01:09:39.059Z,6.1
2015-10-29T01:10:39.014Z,6.2
2015-10-29T01:11:38.939Z,6.2
2015-10-29T01:12:38.895Z,6.2
2015-10-29T01:13:38.835Z,6.2
2015-10-29T01:14:38.791Z,6.2
2015-10-29T01:15:38.731Z,6.2
2015-10-29T01:16:38.687Z,6.2
2015-10-29T01:17:38.627Z,6.2
2015-10-29T01:18:38.567Z,6.2
2015-10-29T01:19:38.524Z,6.1
2015-10-29T01:20:38.463Z,6.1
2015-10-29T01:21:38.404Z,6.1
2015-10-29T01:22:38.359Z,6.1
2015-10-29T01:23:38.299Z,6.2
2015-10-29T01:24:38.240Z,6.1
2015-10-29T01:25:38.195Z,6
2015-10-29T01:26:38.135Z,6
2015-10-29T01:27:38.091Z,5.9
2015-10-29T01:28:38.016Z,5.9
2015-10-29T01:29:37.972Z,6
2015-10-29T01:30:37.912Z,6
2015-10-29T01:31:37.868Z,6
2015-10-29T01:32:37.809Z,6.1
2015-10-29T01:33:37.748Z,6.2
2015-10-29T01:34:37.704Z,6.2
2015-10-29T01:35:37.645Z,6.3
2015-10-29T01:36:37.584Z,6.3
2015-10-29T01:37:37.556Z,6.2
2015-10-29T01:38:37.480Z,6.2
2015-10-29T01:39:37.436Z,6.2
2015-10-29T01:40:37.376Z,6.2
2015-10-29T01:41:37.316Z,6.1
2015-10-29T01:42:37.256Z,6.1
2015-10-29T01:43:37.213Z,6.1
2015-10-29T01:44:37.153Z,6.2
2015-10-29T01:45:37.108Z,6.2
2015-10-29T01:46:37.064Z,6.1
2015-10-29T01:47:36.989Z,6.2
2015-10-29T01:48:36.945Z,6.2
2015-10-29T01:49:36.885Z,6.2
2015-10-29T01:50:36.825Z,6.1
2015-10-29T01:51:36.781Z,6.1
2015-10-29T01:52:36.721Z,6.2
2015-10-29T01:53:36.677Z,6.2
2015-10-29T01:54:36.618Z,6.2
2015-10-29T01:55:36.557Z,6.3
2015-10-29T01:56:36.513Z,6.3
2015-10-29T01:57:36.468Z,6.3
2015-10-29T01:58:36.393Z,6.3
2015-10-29T01:59:36.349Z,6.3
2015-10-29T02:00:36.289Z,6.3
2015-10-29T02:01:36.229Z,6.4
2015-10-29T02:02:36.185Z,6.4
2015-10-29T02:03:36.126Z,6.4
2015-10-29T02:04:36.081Z,6.4
2015-10-29T02:05:36.022Z,6.5
2015-10-29T02:06:35.962Z,6.4
2015-10-29T02:07:35.965Z,6.3
2015-10-29T02:08:35.859Z,6.2
2015-10-29T02:09:35.798Z,6.2
2015-10-29T02:10:35.754Z,6.2
2015-10-29T02:11:35.695Z,6.2
2015-10-29T02:12:35.634Z,6.4
2015-10-29T02:13:35.590Z,6.4
2015-10-29T02:14:35.530Z,6.4
2015-10-29T02:15:35.470Z,6.5
2015-10-29T02:16:35.427Z,6.4
2015-10-29T02:17:35.366Z,6.4
2015-10-29T02:18:48.042Z,6.4
2015-10-29T02:19:35.263Z,6.4
2015-10-29T02:20:35.202Z,6.4
2015-10-29T02:21:35.175Z,6.3
2015-10-29T02:22:35.099Z,6.4
2015-10-29T02:23:35.039Z,6.3
2015-10-29T02:24:34.995Z,6.3
2015-10-29T02:25:34.935Z,6.3
2015-10-29T02:26:34.875Z,6.3
2015-10-29T02:27:34.832Z,6.3
2015-10-29T02:28:34.771Z,6.3
2015-10-29T02:29:34.712Z,6.3
2015-10-29T02:30:34.668Z,6.3
2015-10-29T02:31:34.608Z,6.3
2015-10-29T02:32:34.595Z,6.3
2015-10-29T02:33:34.504Z,6.3
2015-10-29T02:34:34.444Z,6.2
2015-10-29T02:35:34.384Z,6.2
2015-10-29T02:36:34.340Z,6.2
2015-10-29T02:37:34.280Z,6.2
2015-10-29T02:38:34.220Z,6.3
2015-10-29T02:39:34.176Z,6.3
2015-10-29T02:40:34.132Z,6.3
2015-10-29T02:41:34.072Z,6.3
2015-10-29T02:42:34.012Z,6.3
2015-10-29T02:43:33.984Z,6.4
2015-10-29T02:44:33.909Z,6.4
2015-10-29T02:45:33.864Z,6.4
2015-10-29T02:46:33.788Z,6.4
2015-10-29T02:47:33.728Z,6.3
2015-10-29T02:48:33.685Z,6.3
2015-10-29T02:49:33.625Z,6.4
2015-10-29T02:50:33.564Z,6.4
2015-10-29T02:51:33.521Z,6.3
2015-10-29T02:52:33.461Z,6.3
2015-10-29T02:53:33.417Z,6.3
2015-10-29T02:54:33.357Z,6.3
2015-10-29T02:55:33.297Z,6.2
2015-10-29T02:56:33.238Z,6.1
2015-10-29T02:57:33.194Z,6.1
2015-10-29T02:58:33.134Z,6.1
2015-10-29T02:59:33.105Z,6.1
2015-10-29T03:00:33.030Z,6.1
2015-10-29T03:01:32.970Z,6.1
2015-10-29T03:02:32.926Z,6.1
2015-10-29T03:03:32.866Z,6.2
2015-10-29T03:04:32.822Z,6.2
2015-10-29T03:05:32.763Z,6.3
2015-10-29T03:06:32.702Z,6.3
2015-10-29T03:07:32.658Z,6.3
2015-10-29T03:08:32.599Z,6.2
2015-10-29T03:09:32.554Z,6.3
2015-10-29T03:10:32.495Z,6.3
2015-10-29T03:11:32.435Z,6.3
2015-10-29T03:12:32.390Z,6.4
2015-10-29T03:13:32.331Z,6.3
2015-10-29T03:14:32.287Z,6.3
2015-10-29T03:15:32.212Z,6.3
2015-10-29T03:16:32.167Z,6.3
2015-10-29T03:17:32.107Z,6.1
2015-10-29T03:18:32.062Z,6.1
2015-10-29T03:19:32.003Z,6
2015-10-29T03:20:31.943Z,6.1
2015-10-29T03:21:31.915Z,6.2
2015-10-29T03:22:31.839Z,6.2
2015-10-29T03:23:31.796Z,6.3
2015-10-29T03:24:31.736Z,6.3
2015-10-29T03:25:31.676Z,6.2
2015-10-29T03:26:31.616Z,6.2
2015-10-29T03:27:31.572Z,6.1
2015-10-29T03:28:31.512Z,6
2015-10-29T03:29:31.484Z,5.9
2015-10-29T03:30:31.409Z,5.8
2015-10-29T03:31:31.348Z,5.8
2015-10-29T03:32:31.304Z,5.8
2015-10-29T03:33:31.245Z,5.8
2015-10-29T03:34:31.217Z,5.8
2015-10-29T03:35:31.123Z,5.9
2015-10-29T03:36:31.078Z,6
2015-10-29T03:37:31.034Z,6
2015-10-29T03:38:30.975Z,6
2015-10-29T03:39:30.914Z,6.1
2015-10-29T03:40:30.855Z,6.2
2015-10-29T03:41:30.810Z,6.2
2015-10-29T03:42:30.750Z,6.1
2015-10-29T03:43:30.692Z,6.1
2015-10-29T03:44:30.647Z,6.1
2015-10-29T03:45:30.586Z,6.1
2015-10-29T03:46:30.543Z,6.2
2015-10-29T03:47:30.482Z,6.2
2015-10-29T03:48:30.424Z,6.2
2015-10-29T03:49:30.379Z,6.3
2015-10-29T03:50:30.319Z,6.2
2015-10-29T03:51:30.260Z,6.2
2015-10-29T03:52:30.216Z,6.2
2015-10-29T03:53:30.155Z,6.1
2015-10-29T03:54:30.096Z,6
2015-10-29T03:55:30.068Z,5.8
2015-10-29T03:56:29.992Z,5.7
2015-10-29T03:57:29.932Z,5.5
2015-10-29T03:58:29.904Z,5.6
2015-10-29T03:59:29.829Z,5.7
2015-10-29T04:00:29.768Z,5.7
2015-10-29T04:01:29.724Z,5.8
2015-10-29T04:02:29.665Z,5.8
2015-10-29T04:03:29.620Z,5.7
2015-10-29T04:04:29.546Z,5.7
2015-10-29T04:05:29.501Z,5.7
2015-10-29T04:06:29.457Z,5.8
2015-10-29T04:07:29.382Z,5.8
2015-10-29T04:08:29.337Z,5.7
2015-10-29T04:09:29.293Z,5.6
2015-10-29T04:10:29.233Z,5.6
2015-10-29T04:11:29.189Z,5.6
2015-10-29T04:12:29.114Z,5.7
2015-10-29T04:13:29.070Z,5.7
2015-10-29T04:14:29.009Z,5.7
2015-10-29T04:15:28.997Z,5.8
2015-10-29T04:16:28.890Z,5.8
2015-10-29T04:17:28.846Z,5.8
2015-10-29T04:18:28.801Z,5.8
2015-10-29T04:19:28.726Z,5.8
2015-10-29T04:20:28.682Z,5.8
2015-10-29T04:21:28.622Z,5.7
2015-10-29T04:22:28.562Z,5.6
2015-10-29T04:23:28.518Z,5.7
2015-10-29T04:24:28.458Z,5.7
2015-10-29T04:25:28.399Z,5.7
2015-10-29T04:26:28.355Z,5.4
2015-10-29T04:27:28.294Z,5.4
2015-10-29T04:28:28.250Z,5.3
2015-10-29T04:29:28.191Z,5.4
2015-10-29T04:30:28.131Z,5.5
2015-10-29T04:31:28.071Z,5.5
2015-10-29T04:32:28.027Z,5.5
2015-10-29T04:33:27.983Z,5.5
2015-10-29T04:34:27.907Z,5.5
2015-10-29T04:35:27.847Z,5.5
2015-10-29T04:36:27.803Z,5.5
2015-10-29T04:37:27.759Z,5.5
2015-10-29T04:38:27.684Z,5.5
2015-10-29T04:39:27.654Z,5.3
2015-10-29T04:40:27.579Z,5.3
2015-10-29T04:41:27.535Z,5.3
2015-10-29T04:42:27.476Z,5.4
2015-10-29T04:43:27.415Z,5.2
2015-10-29T04:44:27.356Z,5
2015-10-29T04:45:27.312Z,4.9
2015-10-29T04:46:27.255Z,4.9
2015-10-29T04:47:27.196Z,5.1
2015-10-29T04:48:27.107Z,5.2
2015-10-29T04:49:27.033Z,5.2
2015-10-29T04:50:26.958Z,5.2
2015-10-29T04:51:26.908Z,5.1
2015-10-29T04:52:26.843Z,5.1
2015-10-29T04:53:26.793Z,5
2015-10-29T04:54:26.728Z,5.1
2015-10-29T04:55:26.678Z,5.1
2015-10-29T04:56:26.601Z,5
2015-10-29T04:57:26.554Z,4.9
2015-10-29T04:58:26.493Z,4.8
2015-10-29T04:59:26.430Z,4.8
2015-10-29T05:00:26.385Z,4.8
2015-10-29T05:01:26.341Z,4.9
2015-10-29T05:02:26.265Z,5
2015-10-29T05:03:26.204Z,5.1
2015-10-29T05:04:26.159Z,5.1
2015-10-29T05:05:26.100Z,5.1
2015-10-29T05:06:26.039Z,5
2015-10-29T05:07:25.995Z,5
2015-10-29T05:08:25.935Z,5
2015-10-29T05:09:25.890Z,5
2015-10-29T05:10:25.830Z,5
2015-10-29T05:11:25.771Z,5
2015-10-29T05:12:25.710Z,5
2015-10-29T05:13:25.650Z,5
2015-10-29T05:14:25.607Z,5
2015-10-29T05:15:25.547Z,5.1
2015-10-29T05:16:25.503Z,5
2015-10-29T05:17:25.442Z,5
2015-10-29T05:18:25.383Z,5
2015-10-29T05:19:25.339Z,5.1
2015-10-29T05:20:25.279Z,5
2015-10-29T05:21:25.219Z,5
2015-10-29T05:22:25.159Z,4.9
2015-10-29T05:23:25.115Z,4.9
2015-10-29T05:24:25.056Z,4.9
2015-10-29T05:25:25.011Z,4.7
2015-10-29T05:26:24.951Z,4.6
2015-10-29T05:27:24.892Z,4.6
2015-10-29T05:28:24.832Z,4.7
2015-10-29T05:29:24.787Z,4.8
2015-10-29T05:30:24.727Z,4.9
2015-10-29T05:31:24.668Z,4.9
2015-10-29T05:32:24.608Z,5
2015-10-29T05:33:24.548Z,5
2015-10-29T05:34:24.504Z,4.9
2015-10-29T05:35:24.444Z,4.8
2015-10-29T05:36:24.416Z,4.8
2015-10-29T05:37:24.341Z,4.8
2015-10-29T05:38:24.296Z,4.9
2015-10-29T05:39:24.220Z,4.9
2015-10-29T05:40:24.160Z,5
2015-10-29T05:41:24.117Z,5
2015-10-29T05:42:24.056Z,5
2015-10-29T05:43:23.997Z,4.9
2015-10-29T05:44:23.937Z,5
2015-10-29T05:45:23.893Z,5
2015-10-29T05:46:23.833Z,5.1
2015-10-29T05:47:23.789Z,5.1
2015-10-29T05:48:23.729Z,5.1
2015-10-29T05:49:23.669Z,5.2
2015-10-29T05:50:23.609Z,5.1
2015-10-29T05:51:23.549Z,5.1
2015-10-29T05:52:23.521Z,5
2015-10-29T05:53:23.445Z,4.9
2015-10-29T05:54:23.385Z,4.9
2015-10-29T05:55:23.342Z,4.9
2015-10-29T05:56:23.282Z,4.9
2015-10-29T05:57:23.222Z,4.9
2015-10-29T05:58:23.163Z,4.9
2015-10-29T05:59:23.118Z,4.9
2015-10-29T06:00:23.058Z,5
2015-10-29T06:01:22.999Z,5
2015-10-29T06:02:22.954Z,5
2015-10-29T06:03:22.894Z,5
2015-10-29T06:04:22.834Z,5
2015-10-29T06:05:22.790Z,5.1
2015-10-29T06:06:22.746Z,5.2
2015-10-29T06:07:22.671Z,5.2
2015-10-29T06:08:22.626Z,5.2
2015-10-29T06:09:22.567Z,5.2
2015-10-29T06:10:22.507Z,5.2
2015-10-29T06:11:22.448Z,5.2
2015-10-29T06:12:22.403Z,5.3
2015-10-29T06:13:22.343Z,5.3
2015-10-29T06:14:22.299Z,5.3
2015-10-29T06:15:22.239Z,5.3
2015-10-29T06:16:22.179Z,5.4
2015-10-29T06:17:22.119Z,5.4
2015-10-29T06:18:22.075Z,5.4
2015-10-29T06:19:22.015Z,5.4
2015-10-29T06:20:21.956Z,5.5
2015-10-29T06:21:21.911Z,5.5
2015-10-29T06:22:21.852Z,5.5
2015-10-29T06:23:21.792Z,5.5
2015-10-29T06:24:21.747Z,5.5
2015-10-29T06:25:21.688Z,5.6
2015-10-29T06:26:21.644Z,5.6
2015-10-29T06:27:21.600Z,5.6
2015-10-29T06:28:21.539Z,5.6
2015-10-29T06:29:21.464Z,5.6
2015-10-29T06:30:21.404Z,5.6
2015-10-29T06:31:21.361Z,5.6
2015-10-29T06:32:21.300Z,5.5
2015-10-29T06:33:21.257Z,5.5
2015-10-29T06:34:21.197Z,5.4
2015-10-29T06:35:21.152Z,5.4
2015-10-29T06:36:21.078Z,5.4
2015-10-29T06:37:21.033Z,5.3
2015-10-29T06:38:20.973Z,5.3
2015-10-29T06:39:20.913Z,5.2
2015-10-29T06:40:20.869Z,5.2
2015-10-29T06:41:20.810Z,5.2
2015-10-29T06:42:20.749Z,5.3
2015-10-29T06:43:20.705Z,5.4
2015-10-29T06:44:20.646Z,5.3
2015-10-29T06:45:20.601Z,5.4
2015-10-29T06:46:20.542Z,5.4
2015-10-29T06:47:20.482Z,5.4
2015-10-29T06:48:20.437Z,5.5
2015-10-29T06:49:20.379Z,5.5
2015-10-29T06:50:20.318Z,5.6
2015-10-29T06:51:20.273Z,5.6
2015-10-29T06:52:20.214Z,5.4
2015-10-29T06:53:20.154Z,5.4
2015-10-29T06:54:20.095Z,5.3
2015-10-29T06:55:20.051Z,5.2
2015-10-29T06:56:19.990Z,5.2
2015-10-29T06:57:19.932Z,5.2
2015-10-29T06:58:19.886Z,5.2
2015-10-29T06:59:19.828Z,5.2
2015-10-29T07:00:19.783Z,5.3
2015-10-29T07:01:19.723Z,5.2
2015-10-29T07:02:19.661Z,5.2
2015-10-29T07:03:19.617Z,5.3
2015-10-29T07:04:19.556Z,5.3
2015-10-29T07:05:19.497Z,5.3
2015-10-29T07:06:19.453Z,5.3
2015-10-29T07:07:19.392Z,5.3
2015-10-29T07:08:19.334Z,5.3
2015-10-29T07:09:19.477Z,5.4
2015-10-29T07:10:19.229Z,5.4
2015-10-29T07:11:19.169Z,5.5
2015-10-29T07:12:19.110Z,5.4
2015-10-29T07:13:19.066Z,5.4
2015-10-29T07:14:19.006Z,5.4
2015-10-29T07:15:18.946Z,5.2
2015-10-29T07:16:18.902Z,5.2
2015-10-29T07:17:18.842Z,5.2
2015-10-29T07:18:18.783Z,5.3
2015-10-29T07:19:18.722Z,5.4
2015-10-29T07:20:18.678Z,5.4
2015-10-29T07:21:18.619Z,5.4
2015-10-29T07:22:18.574Z,5.4
2015-10-29T07:23:18.515Z,5.5
2015-10-29T07:24:18.471Z,5.5
2015-10-29T07:25:18.395Z,5.5
2015-10-29T07:26:18.351Z,5.5
2015-10-29T07:27:18.291Z,5.6
2015-10-29T07:28:18.246Z,5.5
2015-10-29T07:29:18.188Z,5.4
2015-10-29T07:30:18.143Z,5.4
2015-10-29T07:31:18.083Z,5.2
2015-10-29T07:32:18.023Z,5.1
2015-10-29T07:33:17.964Z,4.9
2015-10-29T07:34:17.904Z,5
2015-10-29T07:35:17.860Z,4.9
2015-10-29T07:36:17.800Z,4.9
2015-10-29T07:37:17.740Z,5
2015-10-29T07:38:17.695Z,5.1
2015-10-29T07:39:17.637Z,5.1
2015-10-29T07:40:17.576Z,5
2015-10-29T07:41:17.517Z,5.1
2015-10-29T07:42:17.473Z,5.2
2015-10-29T07:43:17.413Z,5.3
2015-10-29T07:44:17.369Z,5.4
2015-10-29T07:45:17.309Z,5.4
2015-10-29T07:46:17.249Z,5.4
2015-10-29T07:47:17.189Z,5.5
2015-10-29T07:48:17.161Z,5.4
2015-10-29T07:49:17.100Z,5.3
2015-10-29T07:50:17.025Z,5.3
2015-10-29T07:51:16.981Z,5.2
2015-10-29T07:52:16.922Z,5.2
2015-10-29T07:53:16.862Z,5.2
2015-10-29T07:54:16.802Z,5.1
2015-10-29T07:55:16.758Z,5
2015-10-29T07:56:16.698Z,5
2015-10-29T07:57:16.653Z,5
2015-10-29T07:58:16.595Z,5.1
2015-10-29T07:59:16.534Z,5.1
2015-10-29T08:00:16.474Z,5.2
2015-10-29T08:01:16.414Z,5.2
2015-10-29T08:02:16.371Z,5.2
2015-10-29T08:03:16.311Z,5.3
2015-10-29T08:04:16.266Z,5.4
2015-10-29T08:05:16.222Z,5.4
2015-10-29T08:06:16.147Z,5.5
2015-10-29T08:07:16.103Z,5.5
2015-10-29T08:08:16.043Z,5.5
2015-10-29T08:09:15.983Z,5.6
2015-10-29T08:10:15.939Z,5.6
2015-10-29T08:11:15.880Z,5.7
2015-10-29T08:12:15.819Z,5.7
2015-10-29T08:13:15.775Z,5.6
2015-10-29T08:14:15.715Z,5.4
2015-10-29T08:15:15.656Z,5.4
2015-10-29T08:16:15.596Z,5.4
2015-10-29T08:17:15.551Z,5.5
2015-10-29T08:18:15.492Z,5.6
2015-10-29T08:19:15.448Z,5.6
2015-10-29T08:20:15.373Z,5.6
2015-10-29T08:21:15.329Z,5.5
2015-10-29T08:22:15.268Z,5.6
2015-10-29T08:23:15.225Z,5.6
2015-10-29T08:24:15.165Z,5.6
2015-10-29T08:25:15.120Z,5.7
2015-10-29T08:26:15.076Z,5.7
2015-10-29T08:27:15.001Z,5.7
2015-10-29T08:28:14.942Z,5.8
2015-10-29T08:29:14.898Z,5.8
2015-10-29T08:30:14.838Z,5.8
2015-10-29T08:31:14.778Z,5.8
2015-10-29T08:32:14.733Z,5.8
2015-10-29T08:33:14.674Z,5.8
2015-10-29T08:34:14.614Z,5.8
2015-10-29T08:35:14.569Z,5.7
2015-10-29T08:36:14.509Z,5.6
2015-10-29T08:37:14.450Z,5.7
2015-10-29T08:38:14.406Z,5.8
2015-10-29T08:39:14.347Z,5.8
2015-10-29T08:40:14.287Z,5.8
2015-10-29T08:41:14.242Z,5.8
2015-10-29T08:42:14.182Z,5.9
2015-10-29T08:43:14.123Z,5.9
2015-10-29T08:44:14.078Z,5.9
2015-10-29T08:45:14.033Z,5.9
2015-10-29T08:46:13.974Z,6
2015-10-29T08:47:13.914Z,6
2015-10-29T08:48:13.871Z,6.1
2015-10-29T08:49:13.795Z,6.2
2015-10-29T08:50:13.752Z,6.2
2015-10-29T08:51:13.691Z,6.2
2015-10-29T08:52:13.646Z,6.2
2015-10-29T08:53:13.588Z,6.2
2015-10-29T08:54:13.527Z,6.2
2015-10-29T08:55:13.467Z,6.2
2015-10-29T08:56:13.438Z,6.3
2015-10-29T08:57:13.363Z,6.3
2015-10-29T08:58:13.319Z,6.4
2015-10-29T08:59:13.260Z,6.3
2015-10-29T09:00:13.215Z,6.4
2015-10-29T09:01:13.156Z,6.4
2015-10-29T09:02:13.095Z,6.4
2015-10-29T09:03:13.036Z,6.4
2015-10-29T09:04:12.975Z,6.4
2015-10-29T09:05:12.931Z,6.3
2015-10-29T09:06:12.872Z,6.4
2015-10-29T09:07:12.828Z,6.4
2015-10-29T09:08:12.768Z,6.5
2015-10-29T09:09:12.708Z,6.4
2015-10-29T09:10:12.664Z,6.4
2015-10-29T09:11:12.604Z,6.4
2015-10-29T09:12:12.560Z,6.3
2015-10-29T09:13:12.500Z,6.4
2015-10-29T09:14:12.440Z,6.4
2015-10-29T09:15:12.396Z,6.5
2015-10-29T09:16:12.336Z,6.6
2015-10-29T09:17:12.276Z,6.6
2015-10-29T09:18:12.216Z,6.7
2015-10-29T09:19:12.172Z,6.7
2015-10-29T09:20:12.113Z,6.7
2015-10-29T09:21:12.069Z,6.7
2015-10-29T09:22:12.008Z,6.8
2015-10-29T09:23:11.949Z,6.7
2015-10-29T09:24:11.904Z,6.7
2015-10-29T09:25:11.845Z,6.6
2015-10-29T09:26:11.801Z,6.6
2015-10-29T09:27:11.741Z,6.6
2015-10-29T09:28:11.681Z,6.6
2015-10-29T09:29:11.621Z,6.6
2015-10-29T09:30:11.562Z,6.6
2015-10-29T09:31:11.518Z,6.6
2015-10-29T09:32:11.457Z,6.7
2015-10-29T09:33:11.413Z,6.7
2015-10-29T09:34:11.353Z,6.7
2015-10-29T09:35:11.293Z,6.7
2015-10-29T09:36:11.250Z,6.6
2015-10-29T09:37:11.189Z,6.6
2015-10-29T09:38:11.131Z,6.7
2015-10-29T09:39:11.086Z,6.7
2015-10-29T09:40:11.026Z,6.7
2015-10-29T09:41:10.967Z,6.8
2015-10-29T09:42:10.922Z,6.7
2015-10-29T09:43:10.878Z,6.6
2015-10-29T09:44:10.817Z,6.5
2015-10-29T09:45:10.774Z,6.6
2015-10-29T09:46:10.698Z,6.7
2015-10-29T09:47:10.655Z,6.7
2015-10-29T09:48:10.594Z,6.8
2015-10-29T09:49:10.535Z,6.9
2015-10-29T09:50:10.491Z,6.9
2015-10-29T09:51:10.431Z,6.9
2015-10-29T09:52:10.385Z,6.9
2015-10-29T09:53:10.326Z,6.7
2015-10-29T09:54:10.266Z,6.7
2015-10-29T09:55:10.207Z,6.8
2015-10-29T09:56:10.162Z,6.8
2015-10-29T09:57:10.103Z,6.9
2015-10-29T09:58:10.044Z,6.9
2015-10-29T09:59:10.000Z,6.9
2015-10-29T10:00:09.941Z,7
2015-10-29T10:01:09.880Z,7
2015-10-29T10:02:09.835Z,7
2015-10-29T10:03:09.776Z,7
2015-10-29T10:04:09.747Z,7.1
2015-10-29T10:05:09.672Z,7.1
2015-10-29T10:06:09.627Z,7.1
2015-10-29T10:07:09.568Z,7.1
2015-10-29T10:08:09.508Z,7.1
2015-10-29T10:09:09.465Z,7.1
2015-10-29T10:10:09.404Z,7.2
2015-10-29T10:11:09.345Z,7.2
2015-10-29T10:12:09.300Z,7.3
2015-10-29T10:13:09.240Z,7.3
2015-10-29T10:14:09.196Z,7.3
2015-10-29T10:15:09.137Z,7.3
2015-10-29T10:16:09.077Z,7.4
2015-10-29T10:17:09.032Z,7.4
2015-10-29T10:18:08.973Z,7.5
2015-10-29T10:19:08.929Z,7.5
2015-10-29T10:20:08.869Z,7.5
2015-10-29T10:21:08.825Z,7.5
2015-10-29T10:22:08.764Z,7.6
2015-10-29T10:23:08.705Z,7.6
2015-10-29T10:24:08.645Z,7.5
2015-10-29T10:25:08.601Z,7.5
2015-10-29T10:26:08.542Z,7.5
2015-10-29T10:27:08.497Z,7.5
2015-10-29T10:28:08.437Z,7.5
2015-10-29T10:29:08.377Z,7.5
2015-10-29T10:30:08.334Z,7.6
2015-10-29T10:31:08.274Z,7.6
2015-10-29T10:32:08.229Z,7.7
2015-10-29T10:33:08.169Z,7.7
2015-10-29T10:34:08.125Z,7.8
2015-10-29T10:35:08.065Z,7.8
2015-10-29T10:36:08.021Z,7.9
2015-10-29T10:37:07.961Z,7.9
2015-10-29T10:38:07.918Z,7.9
2015-10-29T10:39:07.857Z,7.9
2015-10-29T10:40:07.798Z,7.9
2015-10-29T10:41:07.753Z,7.9
2015-10-29T10:42:07.693Z,7.9
2015-10-29T10:43:07.649Z,7.9
2015-10-29T10:44:07.590Z,7.9
2015-10-29T10:45:07.529Z,7.9
2015-10-29T10:46:07.485Z,7.9
2015-10-29T10:47:07.426Z,8
2015-10-29T10:48:07.570Z,7.9
2015-10-29T10:49:07.322Z,7.9
2015-10-29T10:50:07.278Z,8
2015-10-29T10:51:07.217Z,8.1
2015-10-29T10:52:07.158Z,8.1
2015-10-29T10:53:07.114Z,8.2
2015-10-29T10:54:07.070Z,8.3
2015-10-29T10:55:06.992Z,8.3
2015-10-29T10:56:06.948Z,8.4
2015-10-29T10:57:06.887Z,8.4
2015-10-29T10:58:06.844Z,8.5
2015-10-29T10:59:06.784Z,8.5
2015-10-29T11:00:06.739Z,8.5
2015-10-29T11:01:06.695Z,8.5
2015-10-29T11:02:06.635Z,8.5
2015-10-29T11:03:06.575Z,8.6
2015-10-29T11:04:06.521Z,8.7
2015-10-29T11:05:06.476Z,8.7
2015-10-29T11:06:06.416Z,8.8
2015-10-29T11:07:06.372Z,8.8
2015-10-29T11:08:06.313Z,8.8
2015-10-29T11:09:06.269Z,8.9
2015-10-29T11:10:06.224Z,8.9
2015-10-29T11:11:06.165Z,8.9
2015-10-29T11:12:06.104Z,8.9
2015-10-29T11:13:06.060Z,9
2015-10-29T11:14:06.001Z,9.1
2015-10-29T11:15:05.940Z,9.1
2015-10-29T11:16:05.896Z,9.2
2015-10-29T11:17:05.837Z,9.3
2015-10-29T11:18:05.793Z,9.3
2015-10-29T11:19:05.733Z,9.4
2015-10-29T11:20:05.689Z,9.5
2015-10-29T11:21:05.645Z,9.6
2015-10-29T11:22:05.584Z,9.7
2015-10-29T11:23:05.525Z,9.8
2015-10-29T11:24:05.481Z,9.8
2015-10-29T11:25:05.639Z,9.8
2015-10-29T11:26:05.377Z,9.9
2015-10-29T11:27:05.316Z,9.9
2015-10-29T11:28:05.272Z,10
2015-10-29T11:29:05.213Z,10
2015-10-29T11:30:05.169Z,10
2015-10-29T11:31:05.125Z,10
2015-10-29T11:32:05.064Z,10
2015-10-29T11:33:05.005Z,10.1
2015-10-29T11:34:04.960Z,10.1
2015-10-29T11:35:04.902Z,10.1
2015-10-29T11:36:04.857Z,10.2
2015-10-29T11:37:04.813Z,10.2
2015-10-29T11:38:04.752Z,10.2
2015-10-29T11:39:04.708Z,10.2
2015-10-29T11:40:04.649Z,10.3
2015-10-29T11:41:04.605Z,10.3
2015-10-29T11:42:04.560Z,10.3
2015-10-29T11:43:04.501Z,10.3
2015-10-29T11:44:04.440Z,10.2
2015-10-29T11:45:04.396Z,10.3
2015-10-29T11:46:04.337Z,10.2
2015-10-29T11:47:04.293Z,10.2
2015-10-29T11:48:04.249Z,10.2
2015-10-29T11:49:04.189Z,10.2
2015-10-29T11:50:04.145Z,10.2
2015-10-29T11:51:04.084Z,10.2
2015-10-29T11:52:04.041Z,10.3
2015-10-29T11:53:03.981Z,10.3
2015-10-29T11:54:03.937Z,10.3
2015-10-29T11:55:03.877Z,10.3
2015-10-29T11:56:03.833Z,10.3
2015-10-29T11:57:03.789Z,10.3
2015-10-29T11:58:03.733Z,10.3
2015-10-29T11:59:03.674Z,10.3
2015-10-29T12:00:03.630Z,10.3
2015-10-29T12:01:03.570Z,10.4
2015-10-29T12:02:03.526Z,10.4
2015-10-29T12:03:03.467Z,10.4
2015-10-29T12:04:03.422Z,10.5
2015-10-29T12:05:03.362Z,10.5
2015-10-29T12:06:03.319Z,10.5
2015-10-29T12:07:03.258Z,10.5
2015-10-29T12:08:03.214Z,10.5
2015-10-29T12:09:03.155Z,10.6
2015-10-29T12:10:03.111Z,10.6
2015-10-29T12:11:03.066Z,10.6
2015-10-29T12:12:03.006Z,10.6
2015-10-29T12:13:02.947Z,10.7
2015-10-29T12:14:02.903Z,10.6
2015-10-29T12:15:02.858Z,10.7
2015-10-29T12:16:02.799Z,10.7
2015-10-29T12:17:02.739Z,10.7
2015-10-29T12:18:02.694Z,10.7
2015-10-29T12:19:02.635Z,10.8
2015-10-29T12:20:02.591Z,10.8
2015-10-29T12:21:02.531Z,10.8
2015-10-29T12:22:02.487Z,10.8
2015-10-29T12:23:02.427Z,10.8
2015-10-29T12:24:02.383Z,10.8
2015-10-29T12:25:02.324Z,10.8
2015-10-29T12:26:02.280Z,10.9
2015-10-29T12:27:02.219Z,10.9
2015-10-29T12:28:02.174Z,10.9
2015-10-29T12:29:02.131Z,10.9
2015-10-29T12:30:02.071Z,10.9
2015-10-29T12:31:02.026Z,10.9
2015-10-29T12:32:01.967Z,10.9
2015-10-29T12:33:01.907Z,10.9
2015-10-29T12:34:01.863Z,10.9
2015-10-29T12:35:01.803Z,10.9
2015-10-29T12:36:01.743Z,11
2015-10-29T12:37:01.699Z,11
2015-10-29T12:38:01.656Z,11
2015-10-29T12:39:01.596Z,11
2015-10-29T12:40:01.551Z,11.1
2015-10-29T12:41:01.492Z,11.1
2015-10-29T12:42:01.432Z,11.1
2015-10-29T12:43:01.387Z,11.1
2015-10-29T12:44:01.328Z,11.1
2015-10-29T12:45:01.284Z,11.2
2015-10-29T12:46:01.237Z,11.2
2015-10-29T12:47:01.177Z,11.2
2015-10-29T12:48:01.133Z,11.2
2015-10-29T12:49:01.073Z,11.2
2015-10-29T12:50:01.013Z,11.3
2015-10-29T12:51:00.969Z,11.3
2015-10-29T12:52:00.909Z,11.3
2015-10-29T12:53:00.865Z,11.4
2015-10-29T12:54:00.821Z,11.4
2015-10-29T12:55:00.761Z,11.4
2015-10-29T12:56:00.702Z,11.4
2015-10-29T12:57:00.673Z,11.4
2015-10-29T12:58:00.588Z,11.4
2015-10-29T12:59:00.544Z,11.5
2015-10-29T13:00:00.484Z,11.5
2015-10-29T13:01:00.439Z,11.5
2015-10-29T13:02:00.380Z,11.5
2015-10-29T13:03:00.351Z,11.5
2015-10-29T13:04:00.291Z,11.5
2015-10-29T13:05:00.232Z,11.6
2015-10-29T13:06:00.188Z,11.7
2015-10-29T13:07:00.128Z,11.7
2015-10-29T13:08:00.068Z,11.9
2015-10-29T13:09:00.025Z,12
2015-10-29T13:09:59.964Z,12.2
2015-10-29T13:10:59.919Z,12.3
2015-10-29T13:11:59.860Z,12.4
2015-10-29T13:12:59.816Z,12.5
2015-10-29T13:13:59.756Z,12.4
2015-10-29T13:14:59.713Z,12.4
2015-10-29T13:15:59.668Z,12.3
2015-10-29T13:16:59.608Z,12.2
2015-10-29T13:17:59.564Z,12.1
2015-10-29T13:18:59.504Z,12.1
2015-10-29T13:19:59.460Z,12
2015-10-29T13:20:59.400Z,12
2015-10-29T13:21:59.341Z,12
2015-10-29T13:22:59.296Z,12
2015-10-29T13:23:59.252Z,12.1
2015-10-29T13:24:59.192Z,12.1
2015-10-29T13:25:59.149Z,12.2
2015-10-29T13:26:59.088Z,12.2
2015-10-29T13:27:59.044Z,12.3
2015-10-29T13:28:58.985Z,12.3
2015-10-29T13:29:58.940Z,12.3
2015-10-29T13:30:58.881Z,12.3
2015-10-29T13:31:58.837Z,12.3
2015-10-29T13:32:58.793Z,12.3
2015-10-29T13:33:58.732Z,12.6
2015-10-29T13:34:58.688Z,12.6
2015-10-29T13:35:58.628Z,12.9
2015-10-29T13:36:58.584Z,12.9
2015-10-29T13:37:58.525Z,12.8
2015-10-29T13:38:58.481Z,12.7
2015-10-29T13:39:58.421Z,12.6
2015-10-29T13:40:58.376Z,12.7
2015-10-29T13:41:58.317Z,12.6
2015-10-29T13:42:58.273Z,12.6
2015-10-29T13:43:58.228Z,12.5
2015-10-29T13:44:58.170Z,12.5
2015-10-29T13:45:58.125Z,12.5
2015-10-29T13:46:58.064Z,12.4